sensor_id;sensor_type;location;lat;lon;timestamp;temperature;humidity
13711;DHT22;6927;51.256;9.410;2023-03-16T00:01:28;-1.80;99.90
13711;DHT22;6927;51.256;9.410;2023-03-16T00:04:28;-1.70;99.90
13711;DHT22;6927;51.256;9.410;2023-03-16T00:07:45;-1.80;99.90
13711;DHT22;6927;51.256;9.410;2023-03-16T00:17:13;-1.80;99.90
13711;DHT22;6927;51.256;9.410;2023-03-16T00:20:08;-1.80;99.90
13711;DHT22;6927;51.256;9.410;2023-03-16T00:22:35;-1.80;99.90
13711;DHT22;6927;51.256;9.410;2023-03-16T00:25:12;-1.80;99.90
13711;DHT22;6927;51.256;9.410;2023-03-16T00:28:16;-1.80;99.90
13711;DHT22;6927;51.256;9.410;2023-03-16T00:31:13;-1.80;99.90
13711;DHT22;6927;51.256;9.410;2023-03-16T00:34:15;-1.80;99.90
13711;DHT22;6927;51.256;9.410;2023-03-16T00:40:23;-1.80;99.90
13711;DHT22;6927;51.256;9.410;2023-03-16T00:46:28;-1.80;99.90
13711;DHT22;6927;51.256;9.410;2023-03-16T00:49:25;-1.80;99.90
13711;DHT22;6927;51.256;9.410;2023-03-16T00:52:15;-1.80;99.90
13711;DHT22;6927;51.256;9.410;2023-03-16T00:55:10;-1.80;99.90
13711;DHT22;6927;51.256;9.410;2023-03-16T00:58:16;-1.90;99.90
13711;DHT22;6927;51.256;9.410;2023-03-16T01:01:01;-1.90;99.90
13711;DHT22;6927;51.256;9.410;2023-03-16T01:03:40;-2.00;99.90
13711;DHT22;6927;51.256;9.410;2023-03-16T01:06:37;-2.00;99.90
13711;DHT22;6927;51.256;9.410;2023-03-16T01:09:04;-2.00;99.90
13711;DHT22;6927;51.256;9.410;2023-03-16T01:11:37;-2.00;99.90
13711;DHT22;6927;51.256;9.410;2023-03-16T01:14:32;-2.00;99.90
13711;DHT22;6927;51.256;9.410;2023-03-16T01:20:15;-2.00;99.90
13711;DHT22;6927;51.256;9.410;2023-03-16T02:51:35;-2.60;99.90
13711;DHT22;6927;51.256;9.410;2023-03-16T02:54:09;-2.60;99.90
13711;DHT22;6927;51.256;9.410;2023-03-16T03:00:34;-2.60;99.90
13711;DHT22;6927;51.256;9.410;2023-03-16T03:32:20;-2.70;99.90
13711;DHT22;6927;51.256;9.410;2023-03-16T03:38:13;-2.70;99.90
13711;DHT22;6927;51.256;9.410;2023-03-16T03:40:47;-2.70;99.90
13711;DHT22;6927;51.256;9.410;2023-03-16T03:43:41;-2.70;99.90
13711;DHT22;6927;51.256;9.410;2023-03-16T03:46:51;-2.70;99.90
13711;DHT22;6927;51.256;9.410;2023-03-16T03:49:38;-2.70;99.90
13711;DHT22;6927;51.256;9.410;2023-03-16T03:52:42;-2.60;99.90
13711;DHT22;6927;51.256;9.410;2023-03-16T03:55:47;-2.60;99.90
13711;DHT22;6927;51.256;9.410;2023-03-16T03:59:13;-2.60;99.90
13711;DHT22;6927;51.256;9.410;2023-03-16T04:01:43;-2.60;99.90
13711;DHT22;6927;51.256;9.410;2023-03-16T04:09:34;-2.60;99.90
13711;DHT22;6927;51.256;9.410;2023-03-16T04:12:42;-2.70;99.90
13711;DHT22;6927;51.256;9.410;2023-03-16T04:15:29;-2.70;99.90
13711;DHT22;6927;51.256;9.410;2023-03-16T04:21:28;-2.70;99.90
13711;DHT22;6927;51.256;9.410;2023-03-16T04:24:01;-2.70;99.90
13711;DHT22;6927;51.256;9.410;2023-03-16T04:26:53;-2.70;99.90
13711;DHT22;6927;51.256;9.410;2023-03-16T04:29:30;-2.70;99.90
13711;DHT22;6927;51.256;9.410;2023-03-16T04:32:49;-2.70;99.90
13711;DHT22;6927;51.256;9.410;2023-03-16T04:35:36;-2.80;99.90
13711;DHT22;6927;51.256;9.410;2023-03-16T04:41:30;-2.80;99.90
13711;DHT22;6927;51.256;9.410;2023-03-16T04:47:07;-2.90;99.90
13711;DHT22;6927;51.256;9.410;2023-03-16T04:53:17;-2.90;99.90
13711;DHT22;6927;51.256;9.410;2023-03-16T04:55:53;-2.80;99.90
13711;DHT22;6927;51.256;9.410;2023-03-16T04:58:47;-2.80;99.90
13711;DHT22;6927;51.256;9.410;2023-03-16T05:01:42;-2.80;99.90
13711;DHT22;6927;51.256;9.410;2023-03-16T05:07:05;-2.80;99.90
13711;DHT22;6927;51.256;9.410;2023-03-16T05:10:15;-2.80;99.90
13711;DHT22;6927;51.256;9.410;2023-03-16T05:18:57;-2.80;99.90
13711;DHT22;6927;51.256;9.410;2023-03-16T05:21:43;-2.80;99.90
13711;DHT22;6927;51.256;9.410;2023-03-16T05:24:49;-2.80;99.90
13711;DHT22;6927;51.256;9.410;2023-03-16T05:28:08;-2.70;99.90
13711;DHT22;6927;51.256;9.410;2023-03-16T05:31:01;-2.80;99.90
13711;DHT22;6927;51.256;9.410;2023-03-16T05:33:29;-2.70;99.90
13711;DHT22;6927;51.256;9.410;2023-03-16T05:35:54;-2.70;99.90
13711;DHT22;6927;51.256;9.410;2023-03-16T05:38:22;-2.70;99.90
13711;DHT22;6927;51.256;9.410;2023-03-16T05:40:48;-2.70;99.90
13711;DHT22;6927;51.256;9.410;2023-03-16T05:43:18;-2.70;99.90
13711;DHT22;6927;51.256;9.410;2023-03-16T05:45:44;-2.60;99.90
13711;DHT22;6927;51.256;9.410;2023-03-16T05:48:10;-2.60;99.90
13711;DHT22;6927;51.256;9.410;2023-03-16T05:50:35;-2.50;99.90
13711;DHT22;6927;51.256;9.410;2023-03-16T05:53:01;-2.50;99.90
13711;DHT22;6927;51.256;9.410;2023-03-16T05:55:26;-2.40;99.90
13711;DHT22;6927;51.256;9.410;2023-03-16T05:57:52;-2.30;99.90
13711;DHT22;6927;51.256;9.410;2023-03-16T06:00:18;-2.20;99.90
13711;DHT22;6927;51.256;9.410;2023-03-16T06:02:48;-2.00;99.90
13711;DHT22;6927;51.256;9.410;2023-03-16T06:05:15;-1.90;99.90
13711;DHT22;6927;51.256;9.410;2023-03-16T06:07:41;-1.80;99.90
13711;DHT22;6927;51.256;9.410;2023-03-16T06:10:08;-1.50;99.90
13711;DHT22;6927;51.256;9.410;2023-03-16T06:12:34;-1.00;99.90
13711;DHT22;6927;51.256;9.410;2023-03-16T06:15:00;-0.20;99.90
13711;DHT22;6927;51.256;9.410;2023-03-16T06:17:26;0.50;99.90
13711;DHT22;6927;51.256;9.410;2023-03-16T06:19:52;1.40;99.90
13711;DHT22;6927;51.256;9.410;2023-03-16T06:22:17;2.00;99.90
13711;DHT22;6927;51.256;9.410;2023-03-16T06:24:43;2.70;90.80
13711;DHT22;6927;51.256;9.410;2023-03-16T06:27:09;3.00;99.90
13711;DHT22;6927;51.256;9.410;2023-03-16T06:29:35;3.50;1.00
13711;DHT22;6927;51.256;9.410;2023-03-16T06:32:01;3.90;99.90
13711;DHT22;6927;51.256;9.410;2023-03-16T06:34:26;4.60;1.00
13711;DHT22;6927;51.256;9.410;2023-03-16T06:36:52;4.90;99.90
13711;DHT22;6927;51.256;9.410;2023-03-16T06:39:18;4.80;99.90
13711;DHT22;6927;51.256;9.410;2023-03-16T06:41:43;5.00;99.90
13711;DHT22;6927;51.256;9.410;2023-03-16T06:44:09;4.80;1.00
13711;DHT22;6927;51.256;9.410;2023-03-16T06:46:36;4.60;99.90
13711;DHT22;6927;51.256;9.410;2023-03-16T06:49:02;4.50;99.90
13711;DHT22;6927;51.256;9.410;2023-03-16T06:51:29;4.40;38.30
13711;DHT22;6927;51.256;9.410;2023-03-16T06:53:56;4.10;99.90
13711;DHT22;6927;51.256;9.410;2023-03-16T06:56:21;3.60;99.90
13711;DHT22;6927;51.256;9.410;2023-03-16T06:58:47;3.20;1.00
13711;DHT22;6927;51.256;9.410;2023-03-16T07:01:13;3.10;1.00
13711;DHT22;6927;51.256;9.410;2023-03-16T07:03:38;2.70;99.90
13711;DHT22;6927;51.256;9.410;2023-03-16T07:06:04;2.60;1.00
13711;DHT22;6927;51.256;9.410;2023-03-16T07:08:30;2.40;1.00
13711;DHT22;6927;51.256;9.410;2023-03-16T07:10:56;2.30;1.00
13711;DHT22;6927;51.256;9.410;2023-03-16T07:13:21;2.40;1.00
13711;DHT22;6927;51.256;9.410;2023-03-16T07:15:51;2.30;1.00
13711;DHT22;6927;51.256;9.410;2023-03-16T07:18:18;2.30;1.00
13711;DHT22;6927;51.256;9.410;2023-03-16T07:20:44;2.30;1.00
13711;DHT22;6927;51.256;9.410;2023-03-16T07:23:10;2.40;1.00
13711;DHT22;6927;51.256;9.410;2023-03-16T07:25:37;2.50;1.00
13711;DHT22;6927;51.256;9.410;2023-03-16T07:28:02;2.60;1.00
13711;DHT22;6927;51.256;9.410;2023-03-16T07:30:28;2.80;1.00
13711;DHT22;6927;51.256;9.410;2023-03-16T07:32:54;2.90;99.90
13711;DHT22;6927;51.256;9.410;2023-03-16T07:35:20;2.90;57.40
13711;DHT22;6927;51.256;9.410;2023-03-16T07:37:46;3.00;99.90
13711;DHT22;6927;51.256;9.410;2023-03-16T07:40:13;3.20;99.90
13711;DHT22;6927;51.256;9.410;2023-03-16T07:42:39;3.30;1.00
13711;DHT22;6927;51.256;9.410;2023-03-16T07:45:05;3.20;1.00
13711;DHT22;6927;51.256;9.410;2023-03-16T07:47:30;3.20;1.00
13711;DHT22;6927;51.256;9.410;2023-03-16T07:49:58;3.20;1.00
13711;DHT22;6927;51.256;9.410;2023-03-16T07:52:23;3.40;1.00
13711;DHT22;6927;51.256;9.410;2023-03-16T07:54:49;3.40;1.00
13711;DHT22;6927;51.256;9.410;2023-03-16T07:57:15;3.50;1.00
13711;DHT22;6927;51.256;9.410;2023-03-16T07:59:41;3.50;99.90
13711;DHT22;6927;51.256;9.410;2023-03-16T08:02:15;3.80;99.90
13711;DHT22;6927;51.256;9.410;2023-03-16T08:04:41;4.10;99.90
13711;DHT22;6927;51.256;9.410;2023-03-16T08:07:08;4.50;99.90
13711;DHT22;6927;51.256;9.410;2023-03-16T08:09:33;5.40;1.00
13711;DHT22;6927;51.256;9.410;2023-03-16T08:12:04;5.90;99.90
13711;DHT22;6927;51.256;9.410;2023-03-16T08:14:30;6.10;99.90
13711;DHT22;6927;51.256;9.410;2023-03-16T08:16:59;6.20;1.00
13711;DHT22;6927;51.256;9.410;2023-03-16T08:19:24;6.30;99.90
13711;DHT22;6927;51.256;9.410;2023-03-16T08:21:50;6.70;1.00
13711;DHT22;6927;51.256;9.410;2023-03-16T08:24:16;6.70;99.90
13711;DHT22;6927;51.256;9.410;2023-03-16T08:26:41;6.90;99.90
13711;DHT22;6927;51.256;9.410;2023-03-16T08:29:07;7.10;1.00
13711;DHT22;6927;51.256;9.410;2023-03-16T08:31:32;7.30;1.00
13711;DHT22;6927;51.256;9.410;2023-03-16T08:33:59;7.40;99.90
13711;DHT22;6927;51.256;9.410;2023-03-16T08:36:25;8.00;1.00
13711;DHT22;6927;51.256;9.410;2023-03-16T08:38:52;7.80;99.90
13711;DHT22;6927;51.256;9.410;2023-03-16T08:41:19;7.70;1.00
13711;DHT22;6927;51.256;9.410;2023-03-16T08:43:45;7.30;29.10
13711;DHT22;6927;51.256;9.410;2023-03-16T08:46:11;7.40;99.90
13711;DHT22;6927;51.256;9.410;2023-03-16T08:48:38;7.80;99.90
13711;DHT22;6927;51.256;9.410;2023-03-16T08:51:05;8.00;83.20
13711;DHT22;6927;51.256;9.410;2023-03-16T08:53:31;8.50;1.00
13711;DHT22;6927;51.256;9.410;2023-03-16T08:56:04;9.20;1.00
13711;DHT22;6927;51.256;9.410;2023-03-16T08:58:31;10.00;99.90
13711;DHT22;6927;51.256;9.410;2023-03-16T09:01:01;11.20;99.90
13711;DHT22;6927;51.256;9.410;2023-03-16T09:03:30;12.10;99.90
13711;DHT22;6927;51.256;9.410;2023-03-16T09:06:02;13.30;99.90
13711;DHT22;6927;51.256;9.410;2023-03-16T09:08:29;14.10;99.90
13711;DHT22;6927;51.256;9.410;2023-03-16T09:11:02;14.30;99.90
13711;DHT22;6927;51.256;9.410;2023-03-16T09:13:29;14.50;99.90
13711;DHT22;6927;51.256;9.410;2023-03-16T09:15:55;14.90;99.90
13711;DHT22;6927;51.256;9.410;2023-03-16T09:18:21;15.50;99.90
13711;DHT22;6927;51.256;9.410;2023-03-16T09:20:47;15.70;99.90
13711;DHT22;6927;51.256;9.410;2023-03-16T09:23:14;14.40;99.90
13711;DHT22;6927;51.256;9.410;2023-03-16T09:25:39;14.10;99.90
13711;DHT22;6927;51.256;9.410;2023-03-16T09:28:05;13.30;99.90
13711;DHT22;6927;51.256;9.410;2023-03-16T09:30:31;13.00;99.90
13711;DHT22;6927;51.256;9.410;2023-03-16T09:32:57;12.50;99.90
13711;DHT22;6927;51.256;9.410;2023-03-16T09:35:23;13.20;99.90
13711;DHT22;6927;51.256;9.410;2023-03-16T09:37:49;13.10;99.90
13711;DHT22;6927;51.256;9.410;2023-03-16T09:40:26;12.40;99.90
13711;DHT22;6927;51.256;9.410;2023-03-16T09:46:11;13.20;99.90
13711;DHT22;6927;51.256;9.410;2023-03-16T09:48:38;13.30;99.90
13711;DHT22;6927;51.256;9.410;2023-03-16T09:51:12;12.70;99.90
13711;DHT22;6927;51.256;9.410;2023-03-16T09:53:39;13.30;99.90
13711;DHT22;6927;51.256;9.410;2023-03-16T09:56:10;14.60;99.90
13711;DHT22;6927;51.256;9.410;2023-03-16T09:58:37;13.70;99.90
13711;DHT22;6927;51.256;9.410;2023-03-16T10:06:14;13.20;99.90
13711;DHT22;6927;51.256;9.410;2023-03-16T10:08:44;13.80;99.90
13711;DHT22;6927;51.256;9.410;2023-03-16T10:16:29;12.80;99.90
13711;DHT22;6927;51.256;9.410;2023-03-16T10:19:07;11.90;99.90
13711;DHT22;6927;51.256;9.410;2023-03-16T10:21:38;11.50;99.90
13711;DHT22;6927;51.256;9.410;2023-03-16T10:24:22;11.20;99.90
13711;DHT22;6927;51.256;9.410;2023-03-16T10:26:55;10.60;99.90
13711;DHT22;6927;51.256;9.410;2023-03-16T10:29:25;9.80;99.90
13711;DHT22;6927;51.256;9.410;2023-03-16T10:31:57;9.50;99.90
13711;DHT22;6927;51.256;9.410;2023-03-16T10:34:24;9.50;99.90
13711;DHT22;6927;51.256;9.410;2023-03-16T10:36:59;9.30;99.90
13711;DHT22;6927;51.256;9.410;2023-03-16T10:40:04;8.80;99.90
13711;DHT22;6927;51.256;9.410;2023-03-16T10:46:23;9.30;99.90
13711;DHT22;6927;51.256;9.410;2023-03-16T10:49:45;9.70;99.90
13711;DHT22;6927;51.256;9.410;2023-03-16T10:52:37;9.20;99.90
13711;DHT22;6927;51.256;9.410;2023-03-16T10:55:23;9.20;99.90
13711;DHT22;6927;51.256;9.410;2023-03-16T10:57:52;8.80;99.90
13711;DHT22;6927;51.256;9.410;2023-03-16T11:00:52;9.10;99.90
13711;DHT22;6927;51.256;9.410;2023-03-16T11:03:30;9.40;99.90
13711;DHT22;6927;51.256;9.410;2023-03-16T11:06:18;8.80;99.90
13711;DHT22;6927;51.256;9.410;2023-03-16T11:08:45;8.90;99.90
13711;DHT22;6927;51.256;9.410;2023-03-16T11:11:29;9.00;99.90
13711;DHT22;6927;51.256;9.410;2023-03-16T11:13:58;9.60;99.90
13711;DHT22;6927;51.256;9.410;2023-03-16T11:16:58;10.40;99.90
13711;DHT22;6927;51.256;9.410;2023-03-16T11:19:33;11.30;99.90
13711;DHT22;6927;51.256;9.410;2023-03-16T11:22:15;11.80;99.90
13711;DHT22;6927;51.256;9.410;2023-03-16T11:27:55;12.60;99.90
13711;DHT22;6927;51.256;9.410;2023-03-16T11:30:28;11.40;99.90
13711;DHT22;6927;51.256;9.410;2023-03-16T11:32:55;10.70;99.90
13711;DHT22;6927;51.256;9.410;2023-03-16T11:35:36;10.50;99.90
13711;DHT22;6927;51.256;9.410;2023-03-16T11:38:16;10.80;99.90
13711;DHT22;6927;51.256;9.410;2023-03-16T11:40:52;11.10;99.90
13711;DHT22;6927;51.256;9.410;2023-03-16T11:46:32;10.70;99.90
13711;DHT22;6927;51.256;9.410;2023-03-16T11:55:02;10.10;99.90
13711;DHT22;6927;51.256;9.410;2023-03-16T12:11:37;9.30;99.90
13711;DHT22;6927;51.256;9.410;2023-03-16T12:14:14;9.40;99.90
13711;DHT22;6927;51.256;9.410;2023-03-16T12:17:08;9.40;99.90
13711;DHT22;6927;51.256;9.410;2023-03-16T12:19:55;9.20;99.90
13711;DHT22;6927;51.256;9.410;2023-03-16T12:22:43;9.60;99.90
13711;DHT22;6927;51.256;9.410;2023-03-16T12:25:31;10.10;99.90
13711;DHT22;6927;51.256;9.410;2023-03-16T12:28:00;10.30;99.90
13711;DHT22;6927;51.256;9.410;2023-03-16T12:30:35;10.60;99.90
13711;DHT22;6927;51.256;9.410;2023-03-16T12:33:19;10.40;99.90
13711;DHT22;6927;51.256;9.410;2023-03-16T12:36:23;10.30;99.90
13711;DHT22;6927;51.256;9.410;2023-03-16T12:39:08;10.30;99.90
13711;DHT22;6927;51.256;9.410;2023-03-16T12:44:47;11.00;99.90
13711;DHT22;6927;51.256;9.410;2023-03-16T12:47:28;11.80;99.90
13711;DHT22;6927;51.256;9.410;2023-03-16T12:50:04;11.50;99.90
13711;DHT22;6927;51.256;9.410;2023-03-16T12:52:42;10.80;99.90
13711;DHT22;6927;51.256;9.410;2023-03-16T12:55:17;10.50;99.90
13711;DHT22;6927;51.256;9.410;2023-03-16T12:57:45;10.80;99.90
13711;DHT22;6927;51.256;9.410;2023-03-16T13:00:15;10.40;99.90
13711;DHT22;6927;51.256;9.410;2023-03-16T13:02:46;10.30;99.90
13711;DHT22;6927;51.256;9.410;2023-03-16T13:05:27;10.30;99.90
13711;DHT22;6927;51.256;9.410;2023-03-16T13:08:07;10.70;99.90
13711;DHT22;6927;51.256;9.410;2023-03-16T13:10:35;10.90;99.90
13711;DHT22;6927;51.256;9.410;2023-03-16T13:13:13;10.80;99.90
13711;DHT22;6927;51.256;9.410;2023-03-16T13:15:43;10.40;99.90
13711;DHT22;6927;51.256;9.410;2023-03-16T13:20:55;9.50;99.90
13711;DHT22;6927;51.256;9.410;2023-03-16T13:23:25;9.50;99.90
13711;DHT22;6927;51.256;9.410;2023-03-16T13:28:41;9.30;99.90
13711;DHT22;6927;51.256;9.410;2023-03-16T13:34:34;9.10;99.90
13711;DHT22;6927;51.256;9.410;2023-03-16T13:37:29;9.00;99.90
13711;DHT22;6927;51.256;9.410;2023-03-16T13:51:35;9.10;99.90
13711;DHT22;6927;51.256;9.410;2023-03-16T13:54:40;9.30;99.90
13711;DHT22;6927;51.256;9.410;2023-03-16T13:57:35;9.40;99.90
13711;DHT22;6927;51.256;9.410;2023-03-16T14:04:28;9.00;99.90
13711;DHT22;6927;51.256;9.410;2023-03-16T14:07:16;8.90;99.90
13711;DHT22;6927;51.256;9.410;2023-03-16T14:09:43;8.90;99.90
13711;DHT22;6927;51.256;9.410;2023-03-16T14:12:15;8.90;99.90
13711;DHT22;6927;51.256;9.410;2023-03-16T14:14:46;8.90;99.90
13711;DHT22;6927;51.256;9.410;2023-03-16T14:17:17;8.90;99.90
13711;DHT22;6927;51.256;9.410;2023-03-16T14:19:47;8.90;99.90
13711;DHT22;6927;51.256;9.410;2023-03-16T14:22:18;8.90;99.90
13711;DHT22;6927;51.256;9.410;2023-03-16T14:24:46;9.00;99.90
13711;DHT22;6927;51.256;9.410;2023-03-16T14:27:17;9.00;99.90
13711;DHT22;6927;51.256;9.410;2023-03-16T14:29:43;9.00;99.90
13711;DHT22;6927;51.256;9.410;2023-03-16T14:32:27;9.00;99.90
13711;DHT22;6927;51.256;9.410;2023-03-16T14:37:38;9.10;99.90
13711;DHT22;6927;51.256;9.410;2023-03-16T14:40:07;9.20;99.90
13711;DHT22;6927;51.256;9.410;2023-03-16T14:42:33;9.50;99.90
13711;DHT22;6927;51.256;9.410;2023-03-16T14:45:08;10.00;99.90
13711;DHT22;6927;51.256;9.410;2023-03-16T14:47:41;10.30;99.90
13711;DHT22;6927;51.256;9.410;2023-03-16T14:50:12;10.50;99.90
13711;DHT22;6927;51.256;9.410;2023-03-16T14:52:39;10.40;99.90
13711;DHT22;6927;51.256;9.410;2023-03-16T14:55:14;10.00;99.90
13711;DHT22;6927;51.256;9.410;2023-03-16T14:57:40;9.80;99.90
13711;DHT22;6927;51.256;9.410;2023-03-16T15:00:09;9.50;99.90
13711;DHT22;6927;51.256;9.410;2023-03-16T15:02:36;9.30;99.90
13711;DHT22;6927;51.256;9.410;2023-03-16T15:05:02;9.10;99.90
13711;DHT22;6927;51.256;9.410;2023-03-16T15:07:31;9.00;99.90
13711;DHT22;6927;51.256;9.410;2023-03-16T15:10:04;8.90;99.90
13711;DHT22;6927;51.256;9.410;2023-03-16T15:12:31;8.90;99.90
13711;DHT22;6927;51.256;9.410;2023-03-16T15:14:59;8.80;99.90
13711;DHT22;6927;51.256;9.410;2023-03-16T15:17:41;8.60;99.90
13711;DHT22;6927;51.256;9.410;2023-03-16T15:20:14;8.60;99.90
13711;DHT22;6927;51.256;9.410;2023-03-16T15:22:41;8.60;99.90
13711;DHT22;6927;51.256;9.410;2023-03-16T15:25:32;8.60;99.90
13711;DHT22;6927;51.256;9.410;2023-03-16T15:28:18;8.60;99.90
13711;DHT22;6927;51.256;9.410;2023-03-16T15:30:46;8.50;99.90
13711;DHT22;6927;51.256;9.410;2023-03-16T15:33:12;8.50;99.90
13711;DHT22;6927;51.256;9.410;2023-03-16T15:35:39;8.60;99.90
13711;DHT22;6927;51.256;9.410;2023-03-16T15:38:23;8.80;99.90
13711;DHT22;6927;51.256;9.410;2023-03-16T15:40:50;9.30;99.90
13711;DHT22;6927;51.256;9.410;2023-03-16T15:43:19;9.40;99.90
13711;DHT22;6927;51.256;9.410;2023-03-16T15:45:46;9.60;99.90
13711;DHT22;6927;51.256;9.410;2023-03-16T15:48:12;9.80;99.90
13711;DHT22;6927;51.256;9.410;2023-03-16T15:50:40;9.80;99.90
13711;DHT22;6927;51.256;9.410;2023-03-16T15:53:11;9.50;99.90
13711;DHT22;6927;51.256;9.410;2023-03-16T15:55:41;9.30;99.90
13711;DHT22;6927;51.256;9.410;2023-03-16T15:58:34;9.00;99.90
13711;DHT22;6927;51.256;9.410;2023-03-16T16:01:02;8.90;99.90
13711;DHT22;6927;51.256;9.410;2023-03-16T16:03:28;8.80;99.90
13711;DHT22;6927;51.256;9.410;2023-03-16T16:05:53;8.70;99.90
13711;DHT22;6927;51.256;9.410;2023-03-16T16:08:19;8.60;99.90
13711;DHT22;6927;51.256;9.410;2023-03-16T16:10:46;8.60;99.90
13711;DHT22;6927;51.256;9.410;2023-03-16T16:13:17;8.50;99.90
13711;DHT22;6927;51.256;9.410;2023-03-16T16:15:43;8.40;99.90
13711;DHT22;6927;51.256;9.410;2023-03-16T16:18:30;8.40;99.90
13711;DHT22;6927;51.256;9.410;2023-03-16T16:20:59;8.60;99.90
13711;DHT22;6927;51.256;9.410;2023-03-16T16:23:25;8.90;99.90
13711;DHT22;6927;51.256;9.410;2023-03-16T16:25:57;9.40;99.90
13711;DHT22;6927;51.256;9.410;2023-03-16T16:28:27;9.80;99.90
13711;DHT22;6927;51.256;9.410;2023-03-16T16:30:53;10.10;99.90
13711;DHT22;6927;51.256;9.410;2023-03-16T16:33:31;10.20;99.90
13711;DHT22;6927;51.256;9.410;2023-03-16T16:36:00;10.20;99.90
13711;DHT22;6927;51.256;9.410;2023-03-16T16:38:27;10.00;99.90
13711;DHT22;6927;51.256;9.410;2023-03-16T16:40:53;9.40;99.90
13711;DHT22;6927;51.256;9.410;2023-03-16T16:43:41;9.10;99.90
13711;DHT22;6927;51.256;9.410;2023-03-16T16:46:19;8.70;99.90
13711;DHT22;6927;51.256;9.410;2023-03-16T16:48:47;8.50;99.90
13711;DHT22;6927;51.256;9.410;2023-03-16T16:51:18;8.40;99.90
13711;DHT22;6927;51.256;9.410;2023-03-16T16:53:45;8.40;99.90
13711;DHT22;6927;51.256;9.410;2023-03-16T16:56:15;8.20;99.90
13711;DHT22;6927;51.256;9.410;2023-03-16T16:58:43;8.20;99.90
13711;DHT22;6927;51.256;9.410;2023-03-16T17:01:17;8.10;99.90
13711;DHT22;6927;51.256;9.410;2023-03-16T17:03:45;8.10;99.90
13711;DHT22;6927;51.256;9.410;2023-03-16T17:06:15;8.00;99.90
13711;DHT22;6927;51.256;9.410;2023-03-16T17:08:43;7.90;99.90
13711;DHT22;6927;51.256;9.410;2023-03-16T17:11:24;7.80;99.90
13711;DHT22;6927;51.256;9.410;2023-03-16T17:13:52;7.70;99.90
13711;DHT22;6927;51.256;9.410;2023-03-16T17:16:19;7.70;99.90
13711;DHT22;6927;51.256;9.410;2023-03-16T17:18:47;7.60;99.90
13711;DHT22;6927;51.256;9.410;2023-03-16T17:21:16;7.60;99.90
13711;DHT22;6927;51.256;9.410;2023-03-16T17:23:44;7.50;99.90
13711;DHT22;6927;51.256;9.410;2023-03-16T17:26:15;7.40;99.90
13711;DHT22;6927;51.256;9.410;2023-03-16T17:28:45;7.40;99.90
13711;DHT22;6927;51.256;9.410;2023-03-16T17:31:35;7.30;99.90
13711;DHT22;6927;51.256;9.410;2023-03-16T17:37:30;7.20;99.90
13711;DHT22;6927;51.256;9.410;2023-03-16T17:40:03;7.20;99.90
13711;DHT22;6927;51.256;9.410;2023-03-16T17:56:51;6.90;99.90
13711;DHT22;6927;51.256;9.410;2023-03-16T17:59:44;6.80;1.00
13711;DHT22;6927;51.256;9.410;2023-03-16T18:44:17;6.20;99.90
13711;DHT22;6927;51.256;9.410;2023-03-16T18:47:18;6.20;10.90
13711;DHT22;6927;51.256;9.410;2023-03-16T18:50:01;6.20;1.00
13711;DHT22;6927;51.256;9.410;2023-03-16T18:56:32;6.10;99.90
13711;DHT22;6927;51.256;9.410;2023-03-16T19:09:30;5.80;1.00
13711;DHT22;6927;51.256;9.410;2023-03-16T19:15:46;5.60;1.00
13711;DHT22;6927;51.256;9.410;2023-03-16T19:18:56;5.50;1.00
13711;DHT22;6927;51.256;9.410;2023-03-16T19:22:16;5.50;99.90
13711;DHT22;6927;51.256;9.410;2023-03-16T19:25:30;5.40;1.00
13711;DHT22;6927;51.256;9.410;2023-03-16T19:31:59;5.40;31.90
13711;DHT22;6927;51.256;9.410;2023-03-16T19:38:30;5.30;1.00
13711;DHT22;6927;51.256;9.410;2023-03-16T19:44:35;5.10;99.90
13711;DHT22;6927;51.256;9.410;2023-03-16T19:48:04;5.10;1.00
13711;DHT22;6927;51.256;9.410;2023-03-16T20:00:54;5.10;1.00
13711;DHT22;6927;51.256;9.410;2023-03-16T20:18:54;4.80;9.30
13711;DHT22;6927;51.256;9.410;2023-03-16T20:22:07;4.70;27.30
13711;DHT22;6927;51.256;9.410;2023-03-16T22:17:45;3.30;99.90
13711;DHT22;6927;51.256;9.410;2023-03-16T22:23:52;3.20;1.00
13711;DHT22;6927;51.256;9.410;2023-03-16T22:29:33;3.30;99.90
13711;DHT22;6927;51.256;9.410;2023-03-16T22:32:35;3.30;1.00
13711;DHT22;6927;51.256;9.410;2023-03-16T22:35:49;3.40;1.00
13711;DHT22;6927;51.256;9.410;2023-03-16T22:41:15;3.40;1.00
13711;DHT22;6927;51.256;9.410;2023-03-16T23:05:33;3.10;99.90
13711;DHT22;6927;51.256;9.410;2023-03-16T23:08:20;3.20;99.90
13711;DHT22;6927;51.256;9.410;2023-03-16T23:20:53;3.10;1.00
13711;DHT22;6927;51.256;9.410;2023-03-16T23:23:57;3.10;99.90
13711;DHT22;6927;51.256;9.410;2023-03-16T23:26:35;3.10;99.90
13711;DHT22;6927;51.256;9.410;2023-03-16T23:35:34;3.00;1.00
13711;DHT22;6927;51.256;9.410;2023-03-16T23:38:19;3.00;1.00
13711;DHT22;6927;51.256;9.410;2023-03-16T23:41:26;3.00;99.90
13711;DHT22;6927;51.256;9.410;2023-03-16T23:44:25;3.10;1.00
13711;DHT22;6927;51.256;9.410;2023-03-16T23:47:26;3.10;1.00
13711;DHT22;6927;51.256;9.410;2023-03-16T23:49:59;3.20;99.90
13711;DHT22;6927;51.256;9.410;2023-03-16T23:52:43;3.10;1.00
13711;DHT22;6927;51.256;9.410;2023-03-16T23:56:00;3.10;1.00
13711;DHT22;6927;51.256;9.410;2023-03-16T23:59:18;3.20;1.00
